Time;durP1;ratioP1;P1;durP2;ratioP2;P2;SDS_P1;SDS_P2;PMS_P1;PMS_P2;Temp;Humidity;BMP_temperature;BMP_pressure;BME280_temperature;BME280_humidity;BME280_pressure;Samples;Min_cycle;Max_cycle;Signal;HPM_P1;HPM_P2
2021/03/22 00:02:34;;;;;;;1.83;0.90;;;;;;;2.67;49.35;101197.84;6269590;28;20205;-75
2021/03/22 00:05:43;;;;;;;3.20;1.00;;;;;;;2.69;49.87;101201.25;6287478;28;20308;-75
2021/03/22 00:09:06;;;;;;;0.90;0.90;;;;;;;2.48;48.85;101199.75;6287044;28;20274;-75
2021/03/22 00:12:12;;;;;;;0.80;0.80;;;;;;;2.19;49.74;101157.91;6287472;28;20234;-75
2021/03/22 00:15:18;;;;;;;1.30;0.87;;;;;;;2.47;49.59;101197.19;6286583;28;20215;-75
2021/03/22 00:18:33;;;;;;;0.83;0.83;;;;;;;2.40;49.96;101196.97;6287426;28;20224;-75
2021/03/22 00:21:37;;;;;;;3.37;0.83;;;;;;;2.18;50.08;101159.78;6286017;28;20522;-74
2021/03/22 00:24:40;;;;;;;0.90;0.80;;;;;;;2.34;50.51;101186.81;6286482;28;20195;-75
2021/03/22 00:27:43;;;;;;;1.70;0.93;;;;;;;2.29;50.77;101193.66;6287143;28;20255;-74
2021/03/22 00:30:47;;;;;;;1.00;0.80;;;;;;;2.35;51.22;101210.06;6286331;28;20248;-75
2021/03/22 00:33:52;;;;;;;1.37;0.90;;;;;;;2.34;50.88;101204.81;6287212;28;20187;-75
2021/03/22 00:36:55;;;;;;;0.90;0.90;;;;;;;2.10;51.54;101167.78;6286695;28;20275;-75
2021/03/22 00:39:58;;;;;;;1.30;1.30;;;;;;;2.28;51.48;101209.00;6286789;28;20222;-75
2021/03/22 00:43:02;;;;;;;0.80;0.80;;;;;;;2.33;51.30;101216.59;6285942;28;20267;-75
2021/03/22 00:46:37;;;;;;;2.00;0.97;;;;;;;2.25;52.00;101198.53;6288582;28;20189;-74
2021/03/22 00:49:41;;;;;;;2.00;1.00;;;;;;;2.32;51.91;101210.38;6274061;28;20200;-75
2021/03/22 00:52:44;;;;;;;1.10;1.10;;;;;;;2.25;52.25;101228.16;6291664;28;20188;-75
2021/03/22 00:55:49;;;;;;;1.27;0.93;;;;;;;2.32;52.48;101221.13;6291785;28;20219;-75
2021/03/22 00:58:53;;;;;;;1.00;1.00;;;;;;;2.20;53.20;101214.31;6290745;28;20212;-75
2021/03/22 01:01:56;;;;;;;8.53;1.33;;;;;;;2.20;53.52;101222.38;6283821;28;20250;-74
2021/03/22 01:05:00;;;;;;;1.17;0.97;;;;;;;2.05;53.90;101207.75;6290643;28;20515;-75
2021/03/22 01:08:06;;;;;;;2.30;0.87;;;;;;;2.21;54.08;101215.97;6291348;28;20198;-75
2021/03/22 01:11:14;;;;;;;0.90;0.80;;;;;;;2.26;53.88;101212.84;6273806;28;20200;-74
2021/03/22 01:14:17;;;;;;;2.10;1.20;;;;;;;2.26;54.30;101213.66;6291449;28;20188;-74
2021/03/22 01:17:20;;;;;;;13.27;1.27;;;;;;;2.27;54.63;101218.06;6290201;28;20232;-75
2021/03/22 01:20:30;;;;;;;1.50;0.80;;;;;;;2.24;54.69;101207.59;6290467;28;20248;-75
2021/03/22 01:23:35;;;;;;;1.00;0.93;;;;;;;2.19;54.91;101209.91;6290071;28;20404;-75
2021/03/22 01:26:40;;;;;;;2.50;1.00;;;;;;;2.20;54.47;101208.91;6290856;28;20244;-75
2021/03/22 01:29:43;;;;;;;0.80;0.80;;;;;;;2.09;54.61;101176.84;6291662;28;20185;-75
2021/03/22 01:32:46;;;;;;;1.50;0.80;;;;;;;2.35;54.72;101214.59;6291554;28;20252;-75
2021/03/22 01:35:52;;;;;;;0.73;0.73;;;;;;;2.30;54.57;101212.38;6291246;28;20187;-75
2021/03/22 01:38:59;;;;;;;0.80;0.80;;;;;;;2.21;55.37;101202.50;6289706;28;20471;-75
2021/03/22 01:42:23;;;;;;;0.80;0.80;;;;;;;2.18;56.07;101202.00;6290512;28;20184;-74
2021/03/22 01:45:27;;;;;;;0.80;0.80;;;;;;;2.30;55.95;101206.13;6290965;28;20185;-74
2021/03/22 01:48:31;;;;;;;0.60;0.60;;;;;;;2.41;55.51;101211.28;6289564;28;20197;-75
2021/03/22 01:51:37;;;;;;;2.23;0.93;;;;;;;2.36;55.73;101200.97;6289688;28;20184;-75
2021/03/22 01:54:40;;;;;;;1.67;0.80;;;;;;;2.37;55.54;101208.06;6302556;28;20246;-74
2021/03/22 01:57:45;;;;;;;0.70;0.70;;;;;;;2.47;56.09;101211.50;6290812;28;20256;-75
2021/03/22 02:00:48;;;;;;;3.70;0.97;;;;;;;2.43;57.11;101211.97;6290596;28;20329;-74
2021/03/22 02:03:57;;;;;;;0.90;0.90;;;;;;;2.47;56.93;101211.50;6399495;23;20314;-76
2021/03/22 02:07:01;;;;;;;0.90;0.90;;;;;;;2.52;56.70;101206.50;6416550;27;20406;-77
2021/03/22 02:10:06;;;;;;;0.83;0.83;;;;;;;2.64;56.19;101211.63;6417542;27;20251;-77
2021/03/22 02:13:17;;;;;;;0.90;0.90;;;;;;;2.69;56.42;101195.84;6417523;27;20227;-77
2021/03/22 02:16:24;;;;;;;0.70;0.70;;;;;;;2.71;56.78;101193.84;6417552;27;20215;-76
2021/03/22 02:19:57;;;;;;;0.77;0.70;;;;;;;2.77;56.68;101204.84;6417101;27;20181;-76
2021/03/22 02:23:20;;;;;;;0.77;0.77;;;;;;;2.76;56.90;101207.69;6416998;27;20181;-77
2021/03/22 02:26:50;;;;;;;1.40;0.80;;;;;;;2.67;57.21;101205.94;6416613;27;20371;-76
2021/03/22 02:30:23;;;;;;;0.90;0.90;;;;;;;2.47;56.77;101208.81;6415795;27;20464;-77
2021/03/22 02:34:08;;;;;;;0.80;0.80;;;;;;;2.46;57.07;101212.53;6416994;27;20230;-76
2021/03/22 02:37:33;;;;;;;0.87;0.87;;;;;;;2.59;57.30;101205.88;6415661;27;20510;-77
2021/03/22 02:40:43;;;;;;;0.70;0.70;;;;;;;2.74;56.27;101210.53;6416944;27;20182;-77
2021/03/22 02:44:01;;;;;;;0.83;0.83;;;;;;;2.79;56.02;101196.59;6416775;27;20245;-77
2021/03/22 02:47:09;;;;;;;0.80;0.80;;;;;;;2.60;56.96;101191.38;6416469;27;20189;-76
2021/03/22 02:50:17;;;;;;;2.00;0.90;;;;;;;2.62;57.04;101194.78;6397892;27;20264;-77
2021/03/22 02:53:45;;;;;;;0.80;0.80;;;;;;;2.73;56.71;101198.06;6415950;27;20182;-77
2021/03/22 02:56:54;;;;;;;0.90;0.90;;;;;;;2.70;57.21;101195.69;6415126;27;20207;-75
2021/03/22 03:00:01;;;;;;;1.50;0.77;;;;;;;2.83;56.14;101197.94;6416372;27;20185;-77
2021/03/22 03:03:14;;;;;;;0.80;0.80;;;;;;;2.44;56.39;101166.03;6416053;27;20256;-77
2021/03/22 03:06:18;;;;;;;0.83;0.83;;;;;;;2.67;56.66;101197.84;6416192;27;20189;-75
2021/03/22 03:09:24;;;;;;;3.90;0.60;;;;;;;2.75;56.43;101206.00;6415728;27;20183;-76
2021/03/22 03:12:27;;;;;;;1.23;0.80;;;;;;;2.70;56.91;101208.28;6415920;27;20188;-76
2021/03/22 03:15:31;;;;;;;1.23;0.90;;;;;;;2.54;56.74;101161.38;6415810;27;20186;-76
2021/03/22 03:18:36;;;;;;;0.90;0.90;;;;;;;2.85;56.64;101198.66;6415728;27;20237;-76
2021/03/22 03:21:40;;;;;;;3.03;0.80;;;;;;;2.90;55.98;101204.41;6415920;27;20213;-76
2021/03/22 03:24:43;;;;;;;0.77;0.77;;;;;;;2.98;56.05;101201.75;6414544;27;20259;-76
2021/03/22 03:27:47;;;;;;;2.23;0.70;;;;;;;2.91;56.52;101200.69;6415354;27;20255;-76
2021/03/22 03:30:50;;;;;;;1.03;0.87;;;;;;;2.81;56.40;101190.03;6415498;27;20215;-77
2021/03/22 03:33:53;;;;;;;0.67;0.67;;;;;;;2.89;55.99;101191.94;6414334;27;20400;-77
2021/03/22 03:36:58;;;;;;;2.57;0.80;;;;;;;2.89;57.15;101202.72;6415137;27;20215;-76
2021/03/22 03:40:02;;;;;;;0.70;0.70;;;;;;;2.93;56.36;101194.16;6415220;27;20191;-77
2021/03/22 03:43:09;;;;;;;0.70;0.70;;;;;;;2.96;56.39;101187.59;6415410;27;20180;-77
2021/03/22 03:46:12;;;;;;;0.90;0.90;;;;;;;2.94;56.72;101187.78;6415423;27;20206;-77
2021/03/22 03:49:16;;;;;;;1.13;0.80;;;;;;;3.01;56.38;101196.03;6414827;27;20192;-77
2021/03/22 03:52:20;;;;;;;1.60;1.10;;;;;;;2.91;56.62;101195.31;6415118;27;20187;-77
2021/03/22 03:55:26;;;;;;;1.80;0.93;;;;;;;2.89;56.79;101202.72;6415276;27;20181;-76
2021/03/22 03:58:43;;;;;;;6.50;0.80;;;;;;;2.91;56.25;101195.31;6414918;27;20215;-77
2021/03/22 04:01:46;;;;;;;1.00;1.00;;;;;;;2.96;55.95;101193.00;6405987;27;20374;-77
2021/03/22 04:04:49;;;;;;;1.13;0.80;;;;;;;3.02;55.86;101186.97;6413765;27;20206;-76
2021/03/22 04:07:54;;;;;;;1.40;0.80;;;;;;;2.88;56.32;101190.25;6413524;27;20184;-76
2021/03/22 04:10:59;;;;;;;0.80;0.80;;;;;;;2.89;56.06;101198.19;6406612;27;20182;-76
2021/03/22 04:14:04;;;;;;;1.73;0.93;;;;;;;2.87;56.20;101196.66;6414758;27;20218;-77
2021/03/22 04:17:08;;;;;;;0.80;0.80;;;;;;;2.74;56.79;101188.13;6395188;27;20219;-75
2021/03/22 04:20:13;;;;;;;3.40;0.80;;;;;;;2.79;56.14;101185.81;6412508;27;20472;-76
2021/03/22 04:23:18;;;;;;;4.23;1.00;;;;;;;2.88;56.47;101179.47;6413324;27;20368;-76
2021/03/22 04:26:21;;;;;;;0.93;0.90;;;;;;;2.96;55.92;101176.81;6413116;27;20524;-76
2021/03/22 04:29:30;;;;;;;2.57;0.93;;;;;;;2.89;55.82;101159.59;6414085;27;20181;-77
2021/03/22 04:32:34;;;;;;;2.27;0.87;;;;;;;3.00;55.96;101184.44;6414399;27;20181;-76
2021/03/22 04:35:37;;;;;;;1.70;0.90;;;;;;;2.97;56.67;101183.91;6414101;27;20247;-76
2021/03/22 04:38:41;;;;;;;3.03;0.73;;;;;;;2.94;56.36;101173.44;6414342;27;20211;-77
2021/03/22 04:41:45;;;;;;;4.40;1.07;;;;;;;3.06;56.29;101166.75;6414169;27;20182;-77
2021/03/22 04:44:49;;;;;;;0.90;0.90;;;;;;;3.16;55.89;101178.28;6413409;27;20428;-78
2021/03/22 04:47:52;;;;;;;2.93;1.30;;;;;;;3.11;56.14;101180.59;6412900;27;20469;-77
2021/03/22 04:50:56;;;;;;;1.43;1.00;;;;;;;3.07;55.74;101181.94;6413384;27;20188;-77
2021/03/22 04:54:00;;;;;;;2.23;0.90;;;;;;;3.04;55.66;101177.72;6412879;27;20583;-78
2021/03/22 04:57:13;;;;;;;3.63;0.90;;;;;;;2.83;55.84;101185.34;6413906;27;20207;-76
2021/03/22 05:00:20;;;;;;;1.40;0.90;;;;;;;2.81;56.55;101156.84;6413806;27;20186;-76
2021/03/22 05:03:27;;;;;;;3.77;0.70;;;;;;;2.93;56.55;101183.38;6374563;28;20236;-76
2021/03/22 05:06:31;;;;;;;1.13;1.13;;;;;;;3.03;55.86;101184.09;6387932;28;20220;-76
2021/03/22 05:09:36;;;;;;;0.70;0.70;;;;;;;2.99;56.04;101176.50;6386826;28;20188;-76
2021/03/22 05:12:39;;;;;;;2.27;1.20;;;;;;;3.07;56.42;101181.94;6388006;28;20183;-76
2021/03/22 05:15:43;;;;;;;11.30;1.60;;;;;;;3.10;55.83;101185.16;6388037;28;20184;-76
2021/03/22 05:18:47;;;;;;;1.63;1.00;;;;;;;3.18;55.79;101176.28;6387253;28;20448;-76
2021/03/22 05:21:55;;;;;;;9.53;1.07;;;;;;;2.90;54.87;101115.50;6387743;28;20193;-77
2021/03/22 05:24:59;;;;;;;3.40;0.87;;;;;;;3.26;54.96;101173.63;6386814;28;20494;-76
2021/03/22 05:28:14;;;;;;;2.13;1.07;;;;;;;3.33;54.77;101177.34;6386889;28;20185;-76
2021/03/22 05:31:18;;;;;;;2.83;0.80;;;;;;;3.26;54.02;101179.03;6389181;27;20190;-76
2021/03/22 05:34:22;;;;;;;3.23;0.87;;;;;;;3.22;54.48;101156.06;6392841;27;20183;-75
2021/03/22 05:37:28;;;;;;;5.27;1.13;;;;;;;3.22;54.43;101177.63;6391796;27;20237;-76
2021/03/22 05:40:36;;;;;;;0.90;0.90;;;;;;;3.24;54.80;101164.81;6391446;27;20474;-77
2021/03/22 05:44:02;;;;;;;2.00;0.90;;;;;;;3.46;54.51;101179.59;6392563;27;20188;-77
2021/03/22 05:47:19;;;;;;;5.50;0.97;;;;;;;3.38;54.93;101177.72;6391107;27;20237;-77
2021/03/22 05:50:31;;;;;;;0.90;0.90;;;;;;;3.24;54.77;101181.00;6391079;27;20252;-77
2021/03/22 05:53:49;;;;;;;2.07;1.30;;;;;;;3.33;54.69;101168.41;6390891;27;20426;-76
2021/03/22 05:56:58;;;;;;;1.33;0.97;;;;;;;3.48;54.60;101183.81;6373477;27;20266;-77
2021/03/22 06:00:06;;;;;;;2.20;0.80;;;;;;;3.48;54.36;101183.81;6391623;27;20247;-76
2021/03/22 06:03:33;;;;;;;1.40;0.83;;;;;;;3.50;54.01;101171.00;6391612;27;20635;-76
2021/03/22 06:06:41;;;;;;;1.43;0.90;;;;;;;3.15;54.28;101122.69;6391562;27;20186;-76
2021/03/22 06:09:51;;;;;;;5.93;0.73;;;;;;;3.56;54.98;101186.56;6391975;27;20187;-77
2021/03/22 06:13:00;;;;;;;0.70;0.70;;;;;;;3.57;54.44;101172.03;6391849;27;20189;-77
2021/03/22 06:16:16;;;;;;;4.03;1.00;;;;;;;3.59;54.22;101170.03;6392135;27;20182;-76
2021/03/22 06:19:20;;;;;;;2.10;1.10;;;;;;;3.57;53.94;101161.25;6394541;27;20210;-76
2021/03/22 06:22:26;;;;;;;1.33;0.77;;;;;;;3.50;53.74;101170.16;6398060;27;20215;-76
2021/03/22 06:25:31;;;;;;;6.33;1.00;;;;;;;3.61;54.86;101161.78;6395814;27;20215;-75
2021/03/22 06:28:38;;;;;;;5.87;0.70;;;;;;;3.73;53.68;101166.69;6398719;27;20249;-75
2021/03/22 06:31:43;;;;;;;1.07;0.87;;;;;;;3.83;53.71;101177.34;6392347;27;20251;-76
2021/03/22 06:34:54;;;;;;;0.80;0.80;;;;;;;3.85;53.32;101163.69;6390986;27;20252;-77
2021/03/22 06:37:58;;;;;;;4.90;0.83;;;;;;;3.79;53.80;101176.84;6392230;27;20269;-77
2021/03/22 06:41:28;;;;;;;7.53;0.90;;;;;;;3.69;54.58;101165.34;6390821;27;20187;-77
2021/03/22 06:44:40;;;;;;;9.20;1.17;;;;;;;3.84;53.30;101145.81;6390594;27;20183;-77
2021/03/22 06:47:43;;;;;;;3.13;0.97;;;;;;;3.93;53.80;101159.13;6389648;27;20559;-78
2021/03/22 06:51:16;;;;;;;0.93;0.80;;;;;;;3.83;53.55;101150.34;6390608;27;20185;-77
2021/03/22 06:54:31;;;;;;;2.13;1.00;;;;;;;3.85;54.04;101147.50;6390566;27;20215;-77
2021/03/22 06:57:50;;;;;;;3.23;0.90;;;;;;;3.48;54.83;101123.63;6390281;27;20212;-77
2021/03/22 07:01:13;;;;;;;14.40;1.10;;;;;;;3.94;54.07;101138.38;6389527;27;20352;-77
2021/03/22 07:04:26;;;;;;;1.03;0.83;;;;;;;3.90;53.41;101155.94;6389760;27;20307;-77
2021/03/22 07:07:30;;;;;;;6.60;2.00;;;;;;;4.09;53.76;101147.50;6388944;27;20184;-77
2021/03/22 07:10:35;;;;;;;4.67;1.00;;;;;;;4.16;53.52;101148.56;6389898;27;20183;-77
2021/03/22 07:13:51;;;;;;;3.13;0.87;;;;;;;4.10;53.44;101146.50;6389068;27;20391;-76
2021/03/22 07:17:06;;;;;;;0.97;0.90;;;;;;;4.42;53.53;101146.50;6389565;27;20494;-76
2021/03/22 07:20:15;;;;;;;7.53;1.10;;;;;;;4.57;52.89;101150.19;6389984;27;20211;-77
2021/03/22 07:23:36;;;;;;;1.57;0.73;;;;;;;4.44;53.44;101155.31;6390714;27;20278;-78
2021/03/22 07:26:52;;;;;;;4.27;1.00;;;;;;;4.58;53.56;101156.47;6390182;27;20184;-77
2021/03/22 07:30:15;;;;;;;1.17;0.83;;;;;;;4.32;54.57;101156.63;6390340;27;20188;-77
2021/03/22 07:33:41;;;;;;;2.83;0.90;;;;;;;4.38;53.95;101158.69;6389559;27;20358;-77
2021/03/22 07:36:51;;;;;;;3.20;0.97;;;;;;;4.36;53.46;101147.19;6390051;27;20189;-77
2021/03/22 07:39:59;;;;;;;3.13;0.90;;;;;;;4.59;53.34;101164.41;6389254;27;20527;-77
2021/03/22 07:43:16;;;;;;;4.00;1.30;;;;;;;4.69;53.35;101151.56;6389780;27;20185;-78
2021/03/22 07:46:32;;;;;;;2.40;0.97;;;;;;;4.55;54.14;101146.84;6389617;27;20247;-77
2021/03/22 07:49:55;;;;;;;0.80;0.80;;;;;;;4.55;55.14;101157.66;6388152;27;20476;-77
2021/03/22 07:53:03;;;;;;;5.77;1.27;;;;;;;4.42;54.89;101141.09;6389130;27;20199;-78
2021/03/22 07:56:12;;;;;;;3.30;0.83;;;;;;;4.68;54.28;101163.38;6389485;27;20475;-77
2021/03/22 07:59:26;;;;;;;0.70;0.70;;;;;;;4.78;54.25;101168.59;6388496;27;20398;-77
2021/03/22 08:02:41;;;;;;;4.83;1.57;;;;;;;4.92;53.63;101163.34;6387655;27;20235;-77
2021/03/22 08:06:01;;;;;;;1.83;0.80;;;;;;;4.76;53.42;101176.88;6388792;27;20187;-77
2021/03/22 08:09:28;;;;;;;1.90;0.80;;;;;;;4.79;54.11;101171.13;6388999;27;20189;-77
2021/03/22 08:12:41;;;;;;;2.03;0.70;;;;;;;4.92;53.83;101176.84;6388802;27;20232;-77
2021/03/22 08:15:52;;;;;;;4.57;0.80;;;;;;;5.01;53.45;101164.16;6388909;27;20194;-76
2021/03/22 08:19:00;;;;;;;3.50;1.00;;;;;;;5.02;54.20;101161.28;6388383;27;20210;-77
2021/03/22 08:22:22;;;;;;;2.70;0.90;;;;;;;5.13;54.63;101164.63;6388577;27;20185;-78
2021/03/22 08:25:42;;;;;;;3.20;1.00;;;;;;;5.08;55.63;101165.97;6387821;27;20185;-78
2021/03/22 08:29:02;;;;;;;5.47;2.60;;;;;;;4.95;57.20;101154.91;6387649;27;20186;-76
2021/03/22 08:32:17;;;;;;;1.20;0.93;;;;;;;4.88;57.94;101153.88;6387902;27;20185;-77
2021/03/22 08:35:31;;;;;;;2.73;1.07;;;;;;;5.06;58.10;101157.19;6388837;27;20185;-77
2021/03/22 08:38:48;;;;;;;3.83;0.73;;;;;;;4.98;57.40;101095.03;6388104;27;20250;-77
2021/03/22 08:41:58;;;;;;;1.10;1.10;;;;;;;5.31;56.65;101127.38;6387658;28;20491;-77
2021/03/22 08:45:10;;;;;;;3.80;0.80;;;;;;;5.40;56.59;101137.13;6389741;28;20243;-77
2021/03/22 08:48:25;;;;;;;9.13;1.00;;;;;;;5.44;57.21;101138.47;6389699;28;20232;-77
2021/03/22 08:51:32;;;;;;;2.93;0.80;;;;;;;5.37;57.08;101142.88;6388352;28;20186;-78
2021/03/22 08:54:37;;;;;;;5.20;0.87;;;;;;;5.35;56.66;101128.69;6389486;28;20184;-77
2021/03/22 08:57:52;;;;;;;11.63;1.67;;;;;;;5.67;55.54;101142.06;6390711;28;20222;-77
2021/03/22 09:00:56;;;;;;;8.57;1.10;;;;;;;5.62;55.97;101136.34;6389594;28;20213;-76
2021/03/22 09:04:28;;;;;;;1.53;0.90;;;;;;;5.60;56.15;101135.66;6388427;27;20235;-77
2021/03/22 09:07:32;;;;;;;2.93;0.87;;;;;;;5.73;55.63;101127.81;6375894;27;20376;-77
2021/03/22 09:10:40;;;;;;;5.70;0.87;;;;;;;5.82;55.58;101132.16;6393163;27;20189;-77
2021/03/22 09:13:52;;;;;;;6.00;1.10;;;;;;;5.88;55.16;101126.06;6394284;27;20190;-77
2021/03/22 09:16:57;;;;;;;2.60;0.70;;;;;;;5.93;55.25;101123.63;6376074;27;20198;-77
2021/03/22 09:20:15;;;;;;;3.07;1.17;;;;;;;5.83;55.22;101117.59;6394884;27;20211;-77
2021/03/22 09:23:43;;;;;;;1.00;1.00;;;;;;;5.98;54.75;101126.69;6394197;27;20258;-77
2021/03/22 09:26:56;;;;;;;3.80;0.80;;;;;;;6.03;54.12;101129.69;6393043;27;20271;-76
2021/03/22 09:30:39;;;;;;;5.83;1.30;;;;;;;5.96;53.11;101123.28;6393303;27;20201;-77
2021/03/22 09:33:53;;;;;;;12.13;0.97;;;;;;;6.18;52.42;101127.88;6393093;27;20184;-76
2021/03/22 09:36:57;;;;;;;4.30;1.30;;;;;;;6.08;52.50;101138.13;6392084;27;20190;-77
2021/03/22 09:40:00;;;;;;;3.33;1.40;;;;;;;6.12;51.71;101123.19;6391335;27;20218;-77
2021/03/22 09:43:20;;;;;;;1.23;1.23;;;;;;;6.04;50.96;101120.53;6392145;27;20193;-77
2021/03/22 09:46:42;;;;;;;3.77;1.00;;;;;;;6.21;50.65;101121.25;6392535;27;20191;-77
2021/03/22 09:50:21;;;;;;;4.20;1.63;;;;;;;6.10;50.52;101129.78;6391163;27;20187;-77
2021/03/22 09:53:27;;;;;;;9.07;1.60;;;;;;;6.09;50.75;101112.69;6288529;28;20237;-76
2021/03/22 09:56:33;;;;;;;1.37;1.00;;;;;;;6.08;49.92;101127.28;6288461;28;20284;-77
2021/03/22 10:00:17;;;;;;;2.13;1.93;;;;;;;6.06;50.22;101118.47;6287464;28;20265;-78
2021/03/22 10:03:39;;;;;;;7.73;1.80;;;;;;;6.17;49.59;101120.75;6303877;28;20280;-77
2021/03/22 10:06:52;;;;;;;5.63;1.30;;;;;;;6.17;48.75;101082.84;6312162;28;20211;-77
2021/03/22 10:10:00;;;;;;;4.23;1.20;;;;;;;6.51;48.66;101116.75;6312245;28;20209;-77
2021/03/22 10:13:09;;;;;;;5.00;1.10;;;;;;;6.42;49.14;101118.69;6313828;28;20185;-78
2021/03/22 10:16:21;;;;;;;0.93;0.93;;;;;;;6.32;49.14;101113.53;6312612;28;20216;-77
2021/03/22 10:19:28;;;;;;;6.13;1.17;;;;;;;6.48;48.59;101122.53;6311642;28;20573;-77
2021/03/22 10:22:44;;;;;;;1.90;1.10;;;;;;;6.61;48.74;101129.00;6315670;27;20218;-78
2021/03/22 10:25:49;;;;;;;3.97;1.40;;;;;;;6.80;48.64;101133.06;6392928;27;20185;-77
2021/03/22 10:29:22;;;;;;;2.73;1.10;;;;;;;6.75;47.69;101136.31;6390151;27;20353;-79
2021/03/22 10:32:25;;;;;;;1.03;1.03;;;;;;;6.74;48.72;101128.38;6392156;27;20215;-78
2021/03/22 10:35:44;;;;;;;2.83;1.17;;;;;;;6.91;47.87;101117.16;6390333;27;20498;-78
2021/03/22 10:38:51;;;;;;;4.23;1.53;;;;;;;6.94;47.44;101107.81;6391315;27;20211;-78
2021/03/22 10:41:54;;;;;;;5.30;1.13;;;;;;;7.05;48.30;101137.19;6392276;27;20185;-77
2021/03/22 10:44:58;;;;;;;4.63;1.30;;;;;;;7.19;47.96;101133.63;6390279;27;20467;-78
2021/03/22 10:48:24;;;;;;;11.50;0.97;;;;;;;7.17;48.25;101130.25;6390355;27;20372;-78
2021/03/22 10:51:40;;;;;;;2.23;0.70;;;;;;;7.15;47.53;101143.19;6389671;27;20221;-77
2021/03/22 10:54:46;;;;;;;1.90;1.80;;;;;;;6.74;48.55;101095.84;6390851;27;20185;-80
2021/03/22 10:57:50;;;;;;;2.73;1.30;;;;;;;7.04;49.01;101135.50;6390950;27;20182;-77
2021/03/22 11:00:59;;;;;;;1.80;0.70;;;;;;;7.12;48.79;101137.28;6390283;27;20220;-77
2021/03/22 11:04:11;;;;;;;3.47;0.80;;;;;;;7.04;49.20;101140.94;6390530;27;20232;-78
2021/03/22 11:07:22;;;;;;;1.57;0.83;;;;;;;6.90;49.09;101139.91;6389126;27;20207;-78
2021/03/22 11:10:26;;;;;;;0.83;0.83;;;;;;;6.98;49.23;101130.84;6389757;27;20188;-78
2021/03/22 11:13:33;;;;;;;0.87;0.87;;;;;;;7.11;49.19;101136.47;6389191;27;20208;-78
2021/03/22 11:16:50;;;;;;;2.93;0.80;;;;;;;6.98;49.09;101128.13;6389986;27;20223;-78
2021/03/22 11:19:56;;;;;;;10.00;1.10;;;;;;;7.04;48.58;101127.38;6390829;27;20271;-78
2021/03/22 11:23:14;;;;;;;2.73;0.80;;;;;;;7.02;49.27;101126.72;6393985;27;20206;-79
2021/03/22 11:26:25;;;;;;;5.10;1.13;;;;;;;7.07;49.79;101112.59;6392487;27;20183;-78
2021/03/22 11:29:32;;;;;;;5.53;0.97;;;;;;;7.21;49.53;101126.16;6390309;27;20305;-78
2021/03/22 11:32:46;;;;;;;3.00;0.80;;;;;;;7.32;49.23;101125.66;6389870;27;20199;-78
2021/03/22 11:36:04;;;;;;;1.27;0.90;;;;;;;7.32;49.39;101122.94;6392285;27;20243;-78
2021/03/22 11:39:24;;;;;;;2.80;1.00;;;;;;;7.00;48.81;101058.25;6371728;27;20235;-78
2021/03/22 11:42:35;;;;;;;4.33;1.10;;;;;;;7.44;49.21;101126.03;6388090;27;20185;-77
2021/03/22 11:45:45;;;;;;;4.47;0.90;;;;;;;7.36;49.15;101124.28;6389624;27;20193;-77
2021/03/22 11:48:52;;;;;;;5.97;1.03;;;;;;;7.38;48.82;101111.34;6371623;27;20184;-77
2021/03/22 11:51:59;;;;;;;4.00;1.10;;;;;;;7.52;49.14;101118.59;6388194;27;20185;-77
2021/03/22 11:55:08;;;;;;;1.40;0.90;;;;;;;7.49;48.98;101124.44;6388656;27;20478;-77
2021/03/22 11:58:36;;;;;;;7.67;1.10;;;;;;;7.69;49.17;101108.38;6388774;27;20459;-77
2021/03/22 12:01:42;;;;;;;4.37;0.90;;;;;;;7.81;48.42;101116.84;6383459;27;20198;-78
2021/03/22 12:05:23;;;;;;;0.77;0.77;;;;;;;7.87;48.42;101110.66;6413538;27;20480;-77
2021/03/22 12:08:38;;;;;;;1.90;1.00;;;;;;;7.92;48.92;101102.78;6414598;27;20180;-78
2021/03/22 12:11:41;;;;;;;7.10;1.30;;;;;;;8.03;48.35;101115.84;6415424;27;20181;-77
2021/03/22 12:14:44;;;;;;;1.10;1.03;;;;;;;8.06;48.10;101120.91;6413880;27;20181;-77
2021/03/22 12:17:53;;;;;;;0.90;0.90;;;;;;;8.03;47.84;101094.13;6414803;27;20202;-77
2021/03/22 12:20:58;;;;;;;1.00;0.90;;;;;;;8.26;48.21;101102.91;6413380;27;20527;-77
2021/03/22 12:24:04;;;;;;;1.03;0.80;;;;;;;8.40;47.95;101115.59;6414122;27;20217;-77
2021/03/22 12:27:12;;;;;;;1.73;1.10;;;;;;;8.45;47.85;101110.41;6414604;27;20188;-78
2021/03/22 12:30:17;;;;;;;1.13;0.85;;;;;;;8.42;48.29;101099.94;6414487;27;20185;-77
2021/03/22 12:33:28;;;;;;;3.60;0.90;;;;;;;8.53;48.07;101107.53;6417688;27;20212;-78
2021/03/22 12:36:35;;;;;;;5.37;1.30;;;;;;;8.71;47.45;101120.66;6417891;27;20201;-78
2021/03/22 12:39:39;;;;;;;3.77;1.03;;;;;;;8.54;47.82;101109.25;6414508;27;20204;-79
2021/03/22 12:42:45;;;;;;;6.10;1.00;;;;;;;8.57;47.81;101114.28;6416157;27;20187;-77
2021/03/22 12:45:48;;;;;;;2.40;0.80;;;;;;;8.49;47.65;101110.88;6416606;27;20181;-78
2021/03/22 12:48:51;;;;;;;0.80;0.80;;;;;;;8.70;47.65;101128.00;6416701;27;20396;-76
2021/03/22 12:51:55;;;;;;;0.73;0.73;;;;;;;8.63;48.12;101123.50;6417180;27;20188;-76
2021/03/22 12:54:59;;;;;;;5.60;1.20;;;;;;;8.81;47.73;101127.44;6416162;27;20180;-77
2021/03/22 12:58:12;;;;;;;1.40;0.80;;;;;;;8.76;47.85;101124.47;6413620;27;20180;-76
2021/03/22 13:01:16;;;;;;;9.87;1.20;;;;;;;8.77;47.80;101109.84;6410364;27;20264;-78
2021/03/22 13:04:21;;;;;;;6.30;0.97;;;;;;;8.85;47.82;101127.88;6407683;27;20227;-77
2021/03/22 13:07:25;;;;;;;2.33;0.80;;;;;;;8.91;48.34;101120.81;6413797;27;20248;-77
2021/03/22 13:10:32;;;;;;;3.93;1.10;;;;;;;8.96;47.97;101118.31;6413988;27;20191;-77
2021/03/22 13:13:36;;;;;;;2.33;1.00;;;;;;;8.97;47.73;101111.81;6412670;27;20522;-77
2021/03/22 13:16:39;;;;;;;1.38;0.98;;;;;;;9.04;48.00;101107.28;6413906;27;20181;-77
2021/03/22 13:19:45;;;;;;;6.03;1.30;;;;;;;9.08;48.44;101105.84;6414237;27;20321;-77
2021/03/22 13:22:48;;;;;;;1.60;0.80;;;;;;;8.97;48.83;101103.66;6412845;27;20248;-77
2021/03/22 13:26:00;;;;;;;0.80;0.80;;;;;;;8.97;49.02;101095.50;6412295;27;20472;-77
2021/03/22 13:29:06;;;;;;;2.53;0.93;;;;;;;9.08;48.53;101094.94;6413558;27;20181;-77
2021/03/22 13:32:09;;;;;;;0.93;0.90;;;;;;;9.13;48.66;101089.75;6412515;27;20249;-77
2021/03/22 13:35:19;;;;;;;6.65;0.85;;;;;;;9.10;48.57;101087.41;6413146;27;20216;-77
2021/03/22 13:38:25;;;;;;;1.17;0.70;;;;;;;9.10;48.88;101087.41;6395112;27;20216;-78
2021/03/22 13:41:32;;;;;;;2.20;0.73;;;;;;;9.15;49.07;101101.25;6412960;27;20230;-78
2021/03/22 13:44:35;;;;;;;0.60;0.60;;;;;;;9.12;49.04;101093.50;6413673;27;20413;-78
2021/03/22 13:47:40;;;;;;;4.67;0.93;;;;;;;9.27;49.30;101102.38;6414387;27;20337;-79
2021/03/22 13:50:44;;;;;;;3.50;0.77;;;;;;;9.28;49.53;101085.84;6415990;27;20184;-77
2021/03/22 13:53:50;;;;;;;0.70;0.70;;;;;;;9.41;48.65;101090.50;6420375;27;20181;-78
2021/03/22 13:56:55;;;;;;;3.03;0.80;;;;;;;9.90;47.68;101091.09;6419450;27;20204;-77
2021/03/22 13:59:58;;;;;;;6.30;1.23;;;;;;;9.67;47.84;101063.34;6418807;27;20407;-79
2021/03/22 14:03:01;;;;;;;5.65;0.90;;;;;;;9.84;47.94;101081.00;6421202;27;20266;-78
2021/03/22 14:06:07;;;;;;;1.10;0.70;;;;;;;9.56;48.23;101053.03;6419301;27;20248;-78
2021/03/22 14:09:12;;;;;;;4.90;0.65;;;;;;;9.64;48.32;101074.66;6417562;27;20240;-78
2021/03/22 14:12:17;;;;;;;1.58;0.80;;;;;;;9.76;48.59;101066.72;6418012;27;20225;-79
2021/03/22 14:15:28;;;;;;;3.55;0.70;;;;;;;9.67;48.63;101066.09;6417469;27;20181;-78
2021/03/22 14:18:32;;;;;;;1.00;0.68;;;;;;;9.73;49.11;101073.41;6419766;27;20181;-77
2021/03/22 14:21:36;;;;;;;3.20;0.82;;;;;;;9.90;48.67;101074.72;6416155;27;20586;-77
2021/03/22 14:24:39;;;;;;;6.93;0.80;;;;;;;9.91;48.69;101065.47;6417231;27;20203;-77
2021/03/22 14:27:43;;;;;;;3.20;0.90;;;;;;;9.87;49.71;101077.88;6417668;27;20185;-78
2021/03/22 14:30:48;;;;;;;2.05;0.70;;;;;;;9.67;49.24;101048.88;6417855;27;20191;-78
2021/03/22 14:33:54;;;;;;;2.80;0.70;;;;;;;9.85;49.21;101071.78;6420668;27;20212;-79
2021/03/22 14:36:59;;;;;;;0.70;0.70;;;;;;;9.81;49.70;101064.22;6419258;27;20257;-78
2021/03/22 14:40:06;;;;;;;8.15;1.00;;;;;;;9.68;49.67;101040.50;6419672;27;20208;-79
2021/03/22 14:43:19;;;;;;;6.40;0.93;;;;;;;10.04;49.22;101070.97;6419595;27;20180;-79
2021/03/22 14:46:22;;;;;;;1.38;1.05;;;;;;;9.70;49.94;101056.66;6418074;27;20226;-77
2021/03/22 14:49:26;;;;;;;5.13;0.80;;;;;;;9.81;50.15;101070.50;6417062;27;20383;-77
2021/03/22 14:52:29;;;;;;;2.78;0.70;;;;;;;9.88;50.00;101075.97;6417708;27;20401;-79
2021/03/22 14:55:33;;;;;;;4.38;0.70;;;;;;;9.94;50.30;101081.44;6416752;27;20454;-77